»·PEaware :: N520YK KLVK-KNTD

N520YK :: KLVK-KNTD

FLIGHT INFORMATION

Flight Status: Arrived
Operator: Privately registered:
United States
More flights under this callsign
Pilot: Christian A. (580)
Aircraft: BEECH AIRCRAFT SUPER KING AIR COMMUTER
(BE20)
More flights by this aircraft type
Origin: KLVK Livermore Mun
United States
Destination: KNTD Point Mugu NAS
United States
More flights between these airports :: More routes between these airports
Route: ++ DCT +
File this flight plan on PilotEdge
Remarks:
Altitude:
(Current/Filed)
25,000ft
Speed:
(Current/Filed)
298kts
Departed: 15-Jun-18 03:56 PM
Arrived: 15-Jun-18 05:05 PM
Distance/Time
Traveled:
252nm/1:09
Distance/Time
To Go:
Arrived

Flight Plot

Page will automatically refresh every two minutes.


Map Options




Map Legend


Flown Route
Filed Route
Departure Airport
Arrival Airport
Navaid (VOR, NDB)
Fix

Horizontal Profiles

Position Reports

Time Latitude Longitude Heading Altitude Ground
Speed
15-Jun-18 15:37 37.695643 -121.819265 359 404ft 0kts
15-Jun-18 15:38 37.695643 -121.819265 359 404ft 0kts
15-Jun-18 15:39 37.695643 -121.819265 359 404ft 0kts
15-Jun-18 15:40 37.695643 -121.819265 359 404ft 0kts
15-Jun-18 15:41 37.695643 -121.819265 359 404ft 0kts
15-Jun-18 15:42 37.695643 -121.819265 359 404ft 0kts
15-Jun-18 15:43 37.695643 -121.819265 359 404ft 0kts
15-Jun-18 15:44 37.695652 -121.819266 357 404ft 0kts
15-Jun-18 15:45 37.695655 -121.819266 357 404ft 0kts
15-Jun-18 15:46 37.695658 -121.819266 357 404ft 0kts
15-Jun-18 15:47 37.695660 -121.819266 356 404ft 0kts
15-Jun-18 15:48 37.695666 -121.819267 356 404ft 0kts
15-Jun-18 15:49 37.695671 -121.819267 356 404ft 0kts
15-Jun-18 15:50 37.695677 -121.819267 356 404ft 0kts
15-Jun-18 15:51 37.695102 -121.819254 166 404ft 14kts
15-Jun-18 15:52 37.694525 -121.816017 91 404ft 15kts
15-Jun-18 15:53 37.694229 -121.811329 179 404ft 0kts
15-Jun-18 15:54 37.694226 -121.811329 179 404ft 0kts
15-Jun-18 15:55 37.693866 -121.811341 195 404ft 11kts
15-Jun-18 15:56 37.693866 -121.827020 271 674ft 131kts
15-Jun-18 15:57 37.720957 -121.859849 4 2617ft 186kts
15-Jun-18 15:58 37.745841 -121.806612 81 4972ft 191kts
15-Jun-18 15:59 37.754392 -121.738915 82 7243ft 199kts
15-Jun-18 16:00 37.762681 -121.668994 82 9329ft 205kts
15-Jun-18 16:01 37.756937 -121.598743 127 11161ft 212kts
15-Jun-18 16:02 37.722981 -121.536096 124 12959ft 219kts
15-Jun-18 16:03 37.691829 -121.467893 120 14498ft 231kts
15-Jun-18 16:04 37.666860 -121.410450 120 15724ft 234kts
15-Jun-18 16:05 37.637854 -121.343225 119 17021ft 241kts
15-Jun-18 16:06 37.603946 -121.264759 119 17515ft 273kts
15-Jun-18 16:07 37.566011 -121.177306 119 17472ft 290kts
15-Jun-18 16:08 37.527077 -121.087690 119 17461ft 292kts
15-Jun-18 16:09 37.494530 -121.012879 120 17459ft 293kts
15-Jun-18 16:10 37.455269 -120.922828 120 17462ft 292kts
15-Jun-18 16:11 37.416140 -120.833291 120 17471ft 292kts
15-Jun-18 16:12 37.376799 -120.743495 120 17481ft 295kts
15-Jun-18 16:13 37.334045 -120.656717 142 17481ft 291kts
15-Jun-18 16:14 37.250892 -120.607523 164 17472ft 282kts
15-Jun-18 16:15 37.188804 -120.581720 165 17722ft 274kts
15-Jun-18 16:16 37.121247 -120.554338 165 19821ft 244kts
15-Jun-18 16:17 37.054751 -120.527818 165 21351ft 257kts
15-Jun-18 16:18 36.986279 -120.500513 164 22958ft 259kts
15-Jun-18 16:19 36.916115 -120.472659 164 24471ft 271kts
15-Jun-18 16:20 36.839391 -120.442373 163 24744ft 303kts
15-Jun-18 16:21 36.759704 -120.410948 163 24727ft 296kts
15-Jun-18 16:22 36.681793 -120.380251 163 24731ft 292kts
15-Jun-18 16:23 36.604509 -120.349840 163 24732ft 291kts
15-Jun-18 16:24 36.527242 -120.319508 163 24732ft 290kts
15-Jun-18 16:25 36.450363 -120.289379 163 24728ft 290kts
15-Jun-18 16:26 36.373639 -120.259383 163 24726ft 289kts
15-Jun-18 16:27 36.296763 -120.229392 162 24728ft 288kts
15-Jun-18 16:28 36.220308 -120.199604 162 24729ft 288kts
15-Jun-18 16:29 36.143909 -120.169920 162 24733ft 288kts
15-Jun-18 16:30 36.067393 -120.140255 162 24738ft 287kts
15-Jun-18 16:31 35.991155 -120.110759 162 24745ft 287kts
15-Jun-18 16:32 35.914779 -120.081267 162 24754ft 291kts
15-Jun-18 16:33 35.837675 -120.051573 162 24756ft 288kts
15-Jun-18 16:34 35.761225 -120.022195 162 24760ft 288kts
15-Jun-18 16:35 35.684927 -119.992939 162 24768ft 287kts
15-Jun-18 16:36 35.612094 -119.954121 144 24794ft 286kts
15-Jun-18 16:37 35.548422 -119.895326 143 24779ft 287kts
15-Jun-18 16:38 35.484071 -119.837812 144 24772ft 286kts
15-Jun-18 16:39 35.414415 -119.791029 157 24785ft 285kts
15-Jun-18 16:40 35.341105 -119.754984 157 24805ft 284kts
15-Jun-18 16:41 35.268263 -119.717628 156 24809ft 283kts
15-Jun-18 16:42 35.194019 -119.678801 156 23480ft 290kts
15-Jun-18 16:43 35.120863 -119.640364 156 21883ft 285kts
15-Jun-18 16:44 35.049862 -119.603037 156 20318ft 282kts
15-Jun-18 16:45 34.976991 -119.564733 157 18725ft 287kts
15-Jun-18 16:46 34.903744 -119.526335 157 17128ft 286kts
15-Jun-18 16:47 34.831074 -119.488330 157 15525ft 282kts
15-Jun-18 16:48 34.758364 -119.450343 157 13932ft 286kts
15-Jun-18 16:49 34.685562 -119.412252 158 12336ft 286kts
15-Jun-18 16:50 34.613065 -119.374672 158 11094ft 274kts
15-Jun-18 16:51 34.546021 -119.339834 158 10934ft 273kts
15-Jun-18 16:52 34.474874 -119.302986 158 10134ft 275kts
15-Jun-18 16:53 34.414332 -119.261065 131 9389ft 272kts
15-Jun-18 16:54 34.373919 -119.186649 123 8525ft 265kts
15-Jun-18 16:55 34.337043 -119.113061 122 6998ft 248kts
15-Jun-18 16:56 34.302779 -119.044679 122 5268ft 222kts
15-Jun-18 16:57 34.266987 -118.991944 167 3853ft 197kts
15-Jun-18 16:58 34.223889 -119.017908 217 3359ft 159kts
15-Jun-18 16:59 34.188673 -119.053591 219 2219ft 155kts
15-Jun-18 17:00 34.156164 -119.083193 215 1303ft 126kts
15-Jun-18 17:01 34.134991 -119.103900 226 244ft 88kts
15-Jun-18 17:02 34.111824 -119.130028 215 770ft 120kts
15-Jun-18 17:03 34.092762 -119.097908 71 926ft 145kts
15-Jun-18 17:04 34.115035 -119.097177 281 241ft 86kts
15-Jun-18 17:05 34.119878 -119.119520 280 16ft 20kts
15-Jun-18 17:06 34.118517 -119.119883 106 16ft 15kts
15-Jun-18 17:07 34.117002 -119.114867 184 16ft 11kts
15-Jun-18 17:08 34.116163 -119.114959 328 16ft 0kts

Navigation Log

Ident Type
Flight plan parsing failed, navigation log unavailable